createdAt,value
2023-04-21T00:00:11.064Z,99605.88
2023-04-21T00:00:44.736Z,99602.63
2023-04-21T00:01:19.829Z,99605.31
2023-04-21T00:01:53.471Z,99598.31
2023-04-21T00:02:27.641Z,99594.31
2023-04-21T00:03:03.825Z,99599.94
2023-04-21T00:03:38.964Z,99601.00
2023-04-21T00:04:13.750Z,99598.06
2023-04-21T00:04:50.165Z,99602.38
2023-04-21T00:05:22.601Z,99606.94
2023-04-21T00:05:58.947Z,99597.56
2023-04-21T00:06:34.364Z,99601.31
2023-04-21T00:07:06.786Z,99600.50
2023-04-21T00:07:39.304Z,99590.81
2023-04-21T00:08:11.504Z,99597.81
2023-04-21T00:08:46.283Z,99591.63
2023-04-21T00:09:19.080Z,99598.06
2023-04-21T00:09:53.983Z,99608.56
2023-04-21T00:10:28.765Z,99604.25
2023-04-21T00:11:00.975Z,99604.25
2023-04-21T00:11:33.150Z,99597.56
2023-04-21T00:12:08.231Z,99601.31
2023-04-21T00:12:40.504Z,99603.19
2023-04-21T00:13:12.842Z,99595.94
2023-04-21T00:13:45.246Z,99596.75
2023-04-21T00:14:20.071Z,99595.13
2023-04-21T00:14:52.339Z,99599.69
2023-04-21T00:15:24.607Z,99601.31
2023-04-21T00:15:59.369Z,99592.44
2023-04-21T00:16:31.719Z,99597.81
2023-04-21T00:17:04.043Z,99599.69
2023-04-21T00:17:36.328Z,99601.56
2023-04-21T00:18:11.205Z,99597.00
2023-04-21T00:18:43.548Z,99605.88
2023-04-21T00:19:16.031Z,99597.25
2023-04-21T00:19:50.892Z,99593.50
2023-04-21T00:20:23.551Z,99596.50
2023-04-21T00:20:55.810Z,99591.88
2023-04-21T00:21:31.016Z,99593.00
2023-04-21T00:22:04.630Z,99594.06
2023-04-21T00:22:36.826Z,99592.19
2023-04-21T00:23:12.933Z,99593.25
2023-04-21T00:23:45.131Z,99596.19
2023-04-21T00:24:17.348Z,99596.19
2023-04-21T00:24:52.176Z,99593.00
2023-04-21T00:25:27.159Z,99595.94
2023-04-21T00:25:59.718Z,99592.75
2023-04-21T00:26:34.545Z,99587.38
2023-04-21T00:27:07.298Z,99599.19
2023-04-21T00:27:39.493Z,99588.19
2023-04-21T00:28:14.284Z,99595.44
2023-04-21T00:28:46.674Z,99587.63
2023-04-21T00:29:19.283Z,99595.69
2023-04-21T00:29:54.374Z,99594.03
2023-04-21T00:30:26.748Z,99597.00
2023-04-21T00:30:59.048Z,99593.53
2023-04-21T00:31:34.404Z,99592.16
2023-04-21T00:32:08.697Z,99588.66
2023-04-21T00:32:40.962Z,99594.03
2023-04-21T00:33:15.786Z,99590.56
2023-04-21T00:33:48.049Z,99593.25
2023-04-21T00:34:20.521Z,99585.97
2023-04-21T00:34:55.624Z,99587.88
2023-04-21T00:35:28.036Z,99586.28
2023-04-21T00:36:00.292Z,99589.22
2023-04-21T00:36:35.744Z,99585.72
2023-04-21T00:37:08.233Z,99582.22
2023-04-21T00:37:41.787Z,99599.16
2023-04-21T00:38:19.324Z,99585.19
2023-04-21T00:38:51.570Z,99589.75
2023-04-21T00:39:23.890Z,99590.84
2023-04-21T00:39:58.891Z,99584.66
2023-04-21T00:40:34.248Z,99586.53
2023-04-21T00:41:06.524Z,99591.09
2023-04-21T00:41:42.397Z,99588.16
2023-04-21T00:42:16.347Z,99586.53
2023-04-21T00:42:48.721Z,99588.41
2023-04-21T00:43:23.534Z,99582.78
2023-04-21T00:44:02.227Z,99583.03
2023-04-21T00:44:36.853Z,99589.50
2023-04-21T00:45:15.493Z,99597.28
2023-04-21T00:45:47.842Z,99594.88
2023-04-21T00:46:20.064Z,99597.28
2023-04-21T00:46:54.919Z,99591.91
2023-04-21T00:47:28.083Z,99594.59
2023-04-21T00:48:00.387Z,99588.16
2023-04-21T00:48:35.207Z,99588.16
2023-04-21T00:49:07.982Z,99589.22
2023-04-21T00:49:40.450Z,99590.84
2023-04-21T00:50:12.836Z,99590.03
2023-04-21T00:50:48.532Z,99581.16
2023-04-21T00:51:21.112Z,99590.28
2023-04-21T00:51:53.847Z,99583.31
2023-04-21T00:52:31.025Z,99584.38
2023-04-21T00:53:03.897Z,99586.00
2023-04-21T00:53:36.177Z,99587.88
2023-04-21T00:54:12.133Z,99591.38
2023-04-21T00:54:45.043Z,99586.25
2023-04-21T00:55:17.441Z,99583.56
2023-04-21T00:55:55.889Z,99583.56
2023-04-21T00:56:31.087Z,99584.94
2023-04-21T00:57:04.082Z,99581.44
2023-04-21T00:57:39.854Z,99583.03
2023-04-21T00:58:12.184Z,99588.41
2023-04-21T00:58:45.867Z,99584.94
2023-04-21T00:59:21.469Z,99588.16
2023-04-21T00:59:53.783Z,99588.16
2023-04-21T01:00:26.069Z,99588.16
2023-04-21T01:01:00.904Z,99579.81
2023-04-21T01:01:34.503Z,99585.19
2023-04-21T01:02:07.135Z,99592.19
2023-04-21T01:02:43.182Z,99588.69
2023-04-21T01:03:16.799Z,99577.13
2023-04-21T01:03:49.321Z,99585.19
2023-04-21T01:04:24.354Z,99586.00
2023-04-21T01:04:56.736Z,99591.38
2023-04-21T01:05:29.036Z,99584.91
2023-04-21T01:06:01.326Z,99586.81
2023-04-21T01:06:36.972Z,99588.41
2023-04-21T01:07:10.290Z,99589.22
2023-04-21T01:07:42.685Z,99594.59
2023-04-21T01:08:18.282Z,99589.22
2023-04-21T01:08:52.682Z,99584.91
2023-04-21T01:09:24.912Z,99590.28
2023-04-21T01:10:00.024Z,99591.91
2023-04-21T01:10:33.666Z,99591.09
2023-04-21T01:11:13.140Z,99589.50
2023-04-21T01:12:03.980Z,99580.63
2023-04-21T01:12:43.702Z,99591.09
2023-04-21T01:13:15.874Z,99579.81
2023-04-21T01:13:50.806Z,99584.94
2023-04-21T01:14:23.028Z,99586.53
2023-04-21T01:14:55.508Z,99575.53
2023-04-21T01:15:31.521Z,99585.19
2023-04-21T01:16:04.240Z,99586.25
2023-04-21T01:16:37.265Z,99582.78
2023-04-21T01:17:12.166Z,99580.88
2023-04-21T01:17:45.652Z,99572.56
2023-04-21T01:18:19.575Z,99579.56
2023-04-21T01:18:56.494Z,99576.88
2023-04-21T01:19:32.673Z,99577.13
2023-04-21T01:20:09.283Z,99573.09
2023-04-21T01:20:44.966Z,99576.31
2023-04-21T01:21:17.613Z,99581.94
2023-04-21T01:21:54.016Z,99577.69
2023-04-21T01:22:28.895Z,99574.44
2023-04-21T01:23:01.617Z,99565.88
2023-04-21T01:23:33.933Z,99577.41
2023-04-21T01:24:09.747Z,99577.41
2023-04-21T01:24:44.017Z,99570.69
2023-04-21T01:25:20.007Z,99574.44
2023-04-21T01:25:52.547Z,99569.34
2023-04-21T01:26:27.341Z,99571.22
2023-04-21T01:27:00.484Z,99573.91
2023-04-21T01:27:33.587Z,99577.66
2023-04-21T01:28:08.488Z,99564.25
2023-04-21T01:28:41.327Z,99567.19
2023-04-21T01:29:13.513Z,99572.03
2023-04-21T01:29:50.030Z,99571.47
2023-04-21T01:30:22.282Z,99573.66
2023-04-21T01:30:54.618Z,99573.91
2023-04-21T01:31:30.180Z,99571.22
2023-04-21T01:32:06.679Z,99567.72
2023-04-21T01:32:39.057Z,99565.59
2023-04-21T01:33:15.956Z,99561.53
2023-04-21T01:33:48.350Z,99570.16
2023-04-21T01:34:21.778Z,99566.66
2023-04-21T01:34:56.938Z,99570.16
2023-04-21T01:35:29.275Z,99566.91
2023-04-21T01:36:01.937Z,99570.41
2023-04-21T01:36:37.154Z,99570.41
2023-04-21T01:37:13.157Z,99559.94
2023-04-21T01:37:45.558Z,99566.09
2023-04-21T01:38:20.888Z,99569.34
2023-04-21T01:38:53.102Z,99561.28
2023-04-21T01:39:25.500Z,99563.97
2023-04-21T01:40:05.025Z,99568.28
2023-04-21T01:40:42.088Z,99567.72
2023-04-21T01:41:14.362Z,99562.63
2023-04-21T01:41:49.131Z,99559.94
2023-04-21T01:42:22.647Z,99565.56
2023-04-21T01:42:54.886Z,99563.41
2023-04-21T01:43:29.750Z,99566.09
2023-04-21T01:44:02.249Z,99565.31
2023-04-21T01:44:37.461Z,99565.31
2023-04-21T01:45:13.416Z,99572.28
2023-04-21T01:45:45.991Z,99566.91
2023-04-21T01:46:20.214Z,99574.72
2023-04-21T01:46:52.683Z,99568.00
2023-04-21T01:47:28.205Z,99564.22
2023-04-21T01:48:00.529Z,99564.22
2023-04-21T01:48:32.731Z,99564.22
2023-04-21T01:49:04.995Z,99564.22
2023-04-21T01:49:41.234Z,99561.81
2023-04-21T01:50:14.019Z,99562.34
2023-04-21T01:50:47.972Z,99564.22
2023-04-21T01:51:22.812Z,99566.66
2023-04-21T01:51:54.993Z,99563.16
2023-04-21T01:52:29.879Z,99557.53
2023-04-21T01:53:04.719Z,99556.72
2023-04-21T01:53:37.019Z,99562.09
2023-04-21T01:54:09.731Z,99559.16
2023-04-21T01:54:44.571Z,99559.16
2023-04-21T01:55:16.811Z,99561.03
2023-04-21T01:55:49.011Z,99558.06
2023-04-21T01:56:23.850Z,99553.78
2023-04-21T01:56:56.445Z,99552.97
2023-04-21T01:57:28.707Z,99559.94
2023-04-21T01:58:03.577Z,99552.69
2023-04-21T01:58:35.823Z,99560.75
2023-04-21T01:59:08.104Z,99551.63
2023-04-21T01:59:42.985Z,99556.97
2023-04-21T02:00:16.117Z,99556.97
2023-04-21T02:00:49.951Z,99556.19
2023-04-21T02:01:24.792Z,99551.63
2023-04-21T02:01:57.100Z,99548.13
2023-04-21T02:02:29.442Z,99564.78
2023-04-21T02:03:04.555Z,99558.34
2023-04-21T02:03:37.127Z,99555.09
2023-04-21T02:04:09.769Z,99557.53
2023-04-21T02:04:44.719Z,99557.53
2023-04-21T02:05:17.188Z,99557.78
2023-04-21T02:05:50.888Z,99555.66
2023-04-21T02:06:26.427Z,99550.28
2023-04-21T02:06:58.632Z,99558.34
2023-04-21T02:07:33.872Z,99552.16
2023-04-21T02:08:09.349Z,99553.22
2023-04-21T02:08:41.627Z,99557.53
2023-04-21T02:09:13.932Z,99554.84
2023-04-21T02:09:48.927Z,99548.38
2023-04-21T02:10:21.313Z,99550.28
2023-04-21T02:10:53.540Z,99545.97
2023-04-21T02:11:28.594Z,99538.75
2023-04-21T02:12:02.078Z,99543.31
2023-04-21T02:12:34.255Z,99545.69
2023-04-21T02:13:09.319Z,99533.38
2023-04-21T02:13:42.263Z,99542.50
2023-04-21T02:14:14.482Z,99539.00
2023-04-21T02:14:49.679Z,99538.75
2023-04-21T02:15:23.601Z,99535.50
2023-04-21T02:16:06.155Z,99542.22
2023-04-21T02:16:47.286Z,99534.69
2023-04-21T02:17:19.584Z,99536.84
2023-04-21T02:17:51.774Z,99535.50
2023-04-21T02:18:26.726Z,99540.88
2023-04-21T02:18:59.950Z,99535.50
2023-04-21T02:19:32.751Z,99540.88
2023-04-21T02:20:06.529Z,99523.13
2023-04-21T02:20:41.462Z,99532.28
2023-04-21T02:21:13.680Z,99533.38
2023-04-21T02:21:46.022Z,99524.50
2023-04-21T02:22:22.707Z,99532.81
2023-04-21T02:22:57.456Z,99532.00
2023-04-21T02:23:29.705Z,99526.91
2023-04-21T02:24:04.532Z,99525.81
2023-04-21T02:24:36.854Z,99527.72
2023-04-21T02:25:09.619Z,99526.63
2023-04-21T02:25:44.435Z,99525.03
2023-04-21T02:26:18.676Z,99525.03
2023-04-21T02:26:50.996Z,99532.00
2023-04-21T02:27:26.092Z,99529.31
2023-04-21T02:27:58.264Z,99532.00
2023-04-21T02:28:32.714Z,99529.06
2023-04-21T02:29:08.516Z,99531.75
2023-04-21T02:29:43.707Z,99532.28
2023-04-21T02:30:16.032Z,99533.09
2023-04-21T02:30:50.870Z,99534.44
2023-04-21T02:31:23.721Z,99532.81
2023-04-21T02:32:05.142Z,99537.13
2023-04-21T02:32:49.150Z,99533.34
2023-04-21T02:33:21.606Z,99536.03
2023-04-21T02:33:54.912Z,99529.59
2023-04-21T02:34:29.786Z,99529.59
2023-04-21T02:35:02.056Z,99533.34
2023-04-21T02:35:36.904Z,99530.94
2023-04-21T02:36:11.785Z,99528.25
2023-04-21T02:36:43.959Z,99536.59
2023-04-21T02:37:16.134Z,99530.41
2023-04-21T02:37:50.915Z,99532.28
2023-04-21T02:38:25.852Z,99534.16
2023-04-21T02:38:58.152Z,99538.72
2023-04-21T02:39:32.903Z,99528.25
2023-04-21T02:40:06.758Z,99532.84
2023-04-21T02:40:38.971Z,99532.28
2023-04-21T02:41:13.967Z,99526.91
2023-04-21T02:41:46.143Z,99531.47
2023-04-21T02:42:18.344Z,99529.59
2023-04-21T02:42:53.158Z,99524.22
2023-04-21T02:43:25.477Z,99527.16
2023-04-21T02:43:57.797Z,99522.59
2023-04-21T02:44:32.569Z,99519.09
2023-04-21T02:45:07.169Z,99525.56
2023-04-21T02:45:41.087Z,99524.78
2023-04-21T02:46:15.872Z,99524.78
2023-04-21T02:46:48.338Z,99527.44
2023-04-21T02:47:20.836Z,99517.78
2023-04-21T02:47:55.692Z,99519.66
2023-04-21T02:48:28.631Z,99520.47
2023-04-21T02:49:00.855Z,99521.53
2023-04-21T02:49:36.169Z,99522.59
2023-04-21T02:50:09.697Z,99518.31
2023-04-21T02:50:43.587Z,99527.16
2023-04-21T02:51:18.650Z,99527.44
2023-04-21T02:51:50.867Z,99525.81
2023-04-21T02:52:23.128Z,99521.28
2023-04-21T02:52:57.895Z,99528.50
2023-04-21T02:53:32.707Z,99530.13
2023-04-21T02:54:05.634Z,99520.47
2023-04-21T02:54:37.849Z,99524.22
2023-04-21T02:55:13.117Z,99529.56
2023-04-21T02:55:47.108Z,99527.69
2023-04-21T02:56:19.314Z,99524.22
2023-04-21T02:56:54.181Z,99529.56
2023-04-21T02:57:26.375Z,99528.75
2023-04-21T02:57:58.645Z,99528.75
2023-04-21T02:58:33.869Z,99527.97
2023-04-21T02:59:06.076Z,99530.63
2023-04-21T02:59:38.755Z,99526.88
2023-04-21T03:00:14.877Z,99524.22
2023-04-21T03:00:47.351Z,99523.69
2023-04-21T03:01:19.627Z,99526.09
2023-04-21T03:01:54.504Z,99523.41
2023-04-21T03:02:26.835Z,99519.38
2023-04-21T03:02:59.577Z,99527.19
2023-04-21T03:03:35.743Z,99518.31
2023-04-21T03:04:08.267Z,99524.50
2023-04-21T03:04:40.770Z,99521.81
2023-04-21T03:05:16.245Z,99529.56
2023-04-21T03:05:48.885Z,99529.88
2023-04-21T03:06:21.210Z,99533.31
2023-04-21T03:06:56.753Z,99522.59
2023-04-21T03:07:28.920Z,99533.31
2023-04-21T03:08:01.311Z,99527.97
2023-04-21T03:08:38.746Z,99530.63
2023-04-21T03:09:11.568Z,99521.00
2023-04-21T03:09:43.768Z,99524.50
2023-04-21T03:10:19.675Z,99526.38
2023-04-21T03:10:53.110Z,99522.88
2023-04-21T03:11:27.716Z,99526.38
2023-04-21T03:12:03.424Z,99519.91
2023-04-21T03:12:36.022Z,99522.59
2023-04-21T03:13:09.118Z,99520.72
2023-04-21T03:13:43.851Z,99528.75
2023-04-21T03:14:17.518Z,99527.97
2023-04-21T03:14:50.362Z,99527.97
2023-04-21T03:15:23.524Z,99524.22
2023-04-21T03:15:58.740Z,99522.59
2023-04-21T03:16:30.924Z,99527.97
2023-04-21T03:17:03.138Z,99528.75
2023-04-21T03:17:39.726Z,99529.56
2023-04-21T03:18:12.094Z,99524.50
2023-04-21T03:18:44.366Z,99525.28
2023-04-21T03:19:20.268Z,99528.75
2023-04-21T03:19:52.572Z,99532.53
2023-04-21T03:20:26.006Z,99527.97
2023-04-21T03:21:02.818Z,99529.88
2023-04-21T03:21:37.480Z,99517.50
2023-04-21T03:22:09.691Z,99525.81
2023-04-21T03:22:44.684Z,99527.69
2023-04-21T03:23:17.639Z,99524.19
2023-04-21T03:23:53.603Z,99525.28
2023-04-21T03:24:28.762Z,99519.38
2023-04-21T03:25:01.091Z,99525.56
2023-04-21T03:25:33.541Z,99527.97
2023-04-21T03:26:12.268Z,99527.16
2023-04-21T03:26:44.436Z,99526.63
2023-04-21T03:27:16.600Z,99523.94
2023-04-21T03:27:51.424Z,99524.75
2023-04-21T03:28:23.595Z,99523.13
2023-04-21T03:28:57.199Z,99527.69
2023-04-21T03:29:32.159Z,99522.31
2023-04-21T03:30:05.578Z,99520.44
2023-04-21T03:30:38.067Z,99530.38
2023-04-21T03:31:12.945Z,99528.50
2023-04-21T03:31:45.277Z,99523.94
2023-04-21T03:32:17.621Z,99527.69
2023-04-21T03:32:53.127Z,99525.81
2023-04-21T03:33:25.638Z,99525.81
2023-04-21T03:33:57.865Z,99527.69
2023-04-21T03:34:33.018Z,99527.69
2023-04-21T03:35:08.605Z,99524.22
2023-04-21T03:35:40.965Z,99523.13
2023-04-21T03:36:16.617Z,99525.00
2023-04-21T03:36:48.814Z,99526.63
2023-04-21T03:37:21.205Z,99526.63
2023-04-21T03:37:57.081Z,99523.94
2023-04-21T03:38:29.442Z,99522.31
2023-04-21T03:39:13.167Z,99527.44
2023-04-21T03:39:55.348Z,99522.84
2023-04-21T03:40:27.570Z,99515.63
2023-04-21T03:40:59.748Z,99526.91
2023-04-21T03:41:36.043Z,99524.22
2023-04-21T03:42:09.293Z,99525.00
2023-04-21T03:42:42.074Z,99523.94
2023-04-21T03:43:16.884Z,99515.63
2023-04-21T03:43:51.032Z,99523.13
2023-04-21T03:44:26.882Z,99527.69
2023-04-21T03:45:04.993Z,99525.81
2023-04-21T03:45:39.426Z,99521.78
2023-04-21T03:46:18.680Z,99523.13
2023-04-21T03:46:55.566Z,99518.84
2023-04-21T03:47:29.073Z,99521.53
2023-04-21T03:48:01.359Z,99513.47
2023-04-21T03:48:36.257Z,99512.69
2023-04-21T03:49:08.431Z,99518.84
2023-04-21T03:49:40.704Z,99516.94
2023-04-21T03:50:15.639Z,99518.84
2023-04-21T03:50:47.999Z,99523.13
2023-04-21T03:51:20.194Z,99520.44
2023-04-21T03:51:54.999Z,99522.88
2023-04-21T03:52:27.546Z,99527.44
2023-04-21T03:52:59.737Z,99525.56
2023-04-21T03:53:34.660Z,99519.94
2023-04-21T03:54:09.557Z,99516.69
2023-04-21T03:54:44.301Z,99522.88
2023-04-21T03:55:16.587Z,99518.56
2023-04-21T03:55:50.540Z,99519.94
2023-04-21T03:56:25.329Z,99516.69
2023-04-21T03:56:57.611Z,99518.31
2023-04-21T03:57:29.938Z,99516.16
2023-04-21T03:58:04.717Z,99517.50
2023-04-21T03:58:37.192Z,99516.97
2023-04-21T03:59:09.390Z,99508.91
2023-04-21T03:59:44.348Z,99520.19
2023-04-21T04:00:17.052Z,99512.94
2023-04-21T04:00:50.600Z,99519.13
2023-04-21T04:01:25.367Z,99516.44
2023-04-21T04:01:57.568Z,99521.81
2023-04-21T04:02:30.244Z,99514.53
2023-04-21T04:03:05.194Z,99515.09
2023-04-21T04:03:37.582Z,99518.59
2023-04-21T04:04:10.384Z,99517.78
2023-04-21T04:04:45.524Z,99523.69
2023-04-21T04:05:17.922Z,99512.97
2023-04-21T04:05:50.101Z,99515.34
2023-04-21T04:06:24.835Z,99517.22
2023-04-21T04:06:57.624Z,99517.78
2023-04-21T04:07:29.964Z,99516.72
2023-04-21T04:08:02.330Z,99514.84
2023-04-21T04:08:37.181Z,99506.78
2023-04-21T04:09:12.007Z,99517.22
2023-04-21T04:09:46.909Z,99506.50
2023-04-21T04:10:19.613Z,99510.00
2023-04-21T04:10:51.892Z,99502.75
2023-04-21T04:11:26.629Z,99514.28
2023-04-21T04:11:58.829Z,99508.94
2023-04-21T04:12:31.576Z,99518.31
2023-04-21T04:13:06.363Z,99521.81
2023-04-21T04:13:38.678Z,99513.50
2023-04-21T04:14:10.928Z,99518.06
2023-04-21T04:14:45.749Z,99517.78
2023-04-21T04:15:17.994Z,99516.97
2023-04-21T04:15:50.312Z,99517.78
2023-04-21T04:16:25.310Z,99519.66
2023-04-21T04:16:59.060Z,99519.38
2023-04-21T04:17:31.298Z,99518.59
2023-04-21T04:18:06.250Z,99521.00
2023-04-21T04:18:38.490Z,99522.63
2023-04-21T04:19:11.095Z,99521.56
2023-04-21T04:19:45.854Z,99517.00
2023-04-21T04:20:18.127Z,99515.38
2023-04-21T04:20:50.449Z,99515.09
2023-04-21T04:21:25.235Z,99521.00
2023-04-21T04:21:58.833Z,99523.69
2023-04-21T04:22:31.036Z,99516.69
2023-04-21T04:23:03.199Z,99522.63
2023-04-21T04:23:38.333Z,99520.47
2023-04-21T04:24:14.264Z,99517.78
2023-04-21T04:24:48.160Z,99526.13
2023-04-21T04:25:22.929Z,99521.00
2023-04-21T04:25:55.108Z,99527.69
2023-04-21T04:26:27.673Z,99530.13
2023-04-21T04:27:03.486Z,99521.81
2023-04-21T04:27:35.744Z,99522.63
2023-04-21T04:28:07.926Z,99522.63
2023-04-21T04:28:40.561Z,99529.31
2023-04-21T04:29:16.513Z,99532.81
2023-04-21T04:29:49.532Z,99528.50
2023-04-21T04:30:21.824Z,99522.88
2023-04-21T04:30:56.755Z,99519.94
2023-04-21T04:31:29.583Z,99530.69
2023-04-21T04:32:04.338Z,99530.13
2023-04-21T04:32:39.755Z,99532.00
2023-04-21T04:33:12.159Z,99528.25
2023-04-21T04:33:44.631Z,99527.19
2023-04-21T04:34:19.485Z,99528.25
2023-04-21T04:34:52.593Z,99524.50
2023-04-21T04:35:24.982Z,99536.84
2023-04-21T04:35:59.886Z,99527.72
2023-04-21T04:36:32.491Z,99527.44
2023-04-21T04:37:04.739Z,99525.28
2023-04-21T04:37:39.800Z,99525.03
2023-04-21T04:38:12.875Z,99530.13
2023-04-21T04:38:46.136Z,99530.66
2023-04-21T04:39:23.472Z,99534.97
2023-04-21T04:39:55.715Z,99531.22
2023-04-21T04:40:28.965Z,99532.78
2023-04-21T04:41:04.929Z,99522.03
2023-04-21T04:41:37.437Z,99529.03
2023-04-21T04:42:10.251Z,99535.78
2023-04-21T04:42:46.230Z,99534.97
2023-04-21T04:43:18.451Z,99534.66
2023-04-21T04:43:51.291Z,99528.50
2023-04-21T04:44:26.426Z,99530.66
2023-04-21T04:44:59.659Z,99538.16
2023-04-21T04:45:33.313Z,99534.41
2023-04-21T04:46:09.300Z,99537.91
2023-04-21T04:46:41.877Z,99540.31
2023-04-21T04:47:14.155Z,99540.03
2023-04-21T04:47:49.008Z,99533.34
2023-04-21T04:48:21.385Z,99532.78
2023-04-21T04:48:53.604Z,99532.22
2023-04-21T04:49:28.840Z,99533.63
2023-04-21T04:50:01.137Z,99534.94
2023-04-21T04:50:33.321Z,99537.88
2023-04-21T04:51:08.697Z,99546.22
2023-04-21T04:51:40.873Z,99543.25
2023-04-21T04:52:13.080Z,99541.91
2023-04-21T04:52:49.276Z,99544.31
2023-04-21T04:53:21.499Z,99543.25
2023-04-21T04:53:53.813Z,99533.03
2023-04-21T04:54:31.854Z,99531.94
2023-04-21T04:55:04.402Z,99528.47
2023-04-21T04:55:37.355Z,99526.84
2023-04-21T04:56:12.119Z,99526.53
2023-04-21T04:56:44.298Z,99529.78
2023-04-21T04:57:16.528Z,99532.16
2023-04-21T04:57:51.946Z,99536.47
2023-04-21T04:58:24.321Z,99537.03
2023-04-21T04:58:56.575Z,99539.16
2023-04-21T04:59:31.497Z,99539.16
2023-04-21T05:00:04.693Z,99545.06
2023-04-21T05:00:39.625Z,99545.59
2023-04-21T05:01:13.224Z,99538.88
2023-04-21T05:01:45.451Z,99539.38
2023-04-21T05:02:20.331Z,99530.75
2023-04-21T05:02:52.796Z,99533.19
2023-04-21T05:03:25.372Z,99539.91
2023-04-21T05:04:00.708Z,99535.31
2023-04-21T05:04:34.502Z,99535.31
2023-04-21T05:05:08.393Z,99539.63
2023-04-21T05:05:43.323Z,99538.00
2023-04-21T05:06:15.553Z,99543.38
2023-04-21T05:06:47.848Z,99540.69
2023-04-21T05:07:22.620Z,99543.38
2023-04-21T05:07:54.806Z,99543.38
2023-04-21T05:08:26.987Z,99537.22
2023-04-21T05:09:01.783Z,99539.91
2023-04-21T05:09:36.727Z,99547.69
2023-04-21T05:10:09.099Z,99546.06
2023-04-21T05:10:43.941Z,99542.31
2023-04-21T05:11:16.104Z,99543.13
2023-04-21T05:11:48.320Z,99536.94
2023-04-21T05:12:23.165Z,99545.00
2023-04-21T05:12:55.452Z,99538.81
2023-04-21T05:13:27.700Z,99539.91
2023-04-21T05:14:02.589Z,99536.69
2023-04-21T05:14:34.757Z,99534.25
2023-04-21T05:15:08.275Z,99554.19
2023-04-21T05:15:43.024Z,99543.69
2023-04-21T05:16:15.219Z,99550.97
2023-04-21T05:16:47.484Z,99546.66
2023-04-21T05:17:22.292Z,99549.34
2023-04-21T05:17:54.663Z,99560.09
2023-04-21T05:18:29.442Z,99547.75
2023-04-21T05:19:01.978Z,99540.75
2023-04-21T05:19:36.325Z,99554.47
2023-04-21T05:20:12.389Z,99547.47
2023-04-21T05:20:44.691Z,99539.69
2023-04-21T05:21:23.335Z,99551.53
2023-04-21T05:22:01.859Z,99547.22
2023-04-21T05:22:37.488Z,99538.63
2023-04-21T05:23:12.250Z,99545.91
2023-04-21T05:23:44.476Z,99544.03
2023-04-21T05:24:16.751Z,99545.91
2023-04-21T05:24:54.124Z,99548.84
2023-04-21T05:25:26.292Z,99538.09
2023-04-21T05:25:58.460Z,99549.94
2023-04-21T05:26:33.263Z,99548.84
2023-04-21T05:27:05.462Z,99547.25
2023-04-21T05:27:37.754Z,99545.38
2023-04-21T05:28:12.497Z,99541.59
2023-04-21T05:28:44.750Z,99541.06
2023-04-21T05:29:17.147Z,99546.44
2023-04-21T05:29:51.895Z,99541.88
2023-04-21T05:30:24.202Z,99544.84
2023-04-21T05:30:56.388Z,99542.16
2023-04-21T05:31:31.212Z,99532.75
2023-04-21T05:32:03.738Z,99536.78
2023-04-21T05:32:36.501Z,99541.06
2023-04-21T05:33:12.265Z,99536.78
2023-04-21T05:33:44.489Z,99543.22
2023-04-21T05:34:16.694Z,99543.22
2023-04-21T05:34:51.560Z,99539.47
2023-04-21T05:35:23.733Z,99541.06
2023-04-21T05:35:55.956Z,99537.28
2023-04-21T05:36:31.871Z,99533.53
2023-04-21T05:37:04.487Z,99540.53
2023-04-21T05:37:37.026Z,99536.47
2023-04-21T05:38:11.802Z,99541.59
2023-04-21T05:38:43.980Z,99546.72
2023-04-21T05:39:16.802Z,99541.03
2023-04-21T05:39:54.401Z,99536.47
2023-04-21T05:40:26.687Z,99535.66
2023-04-21T05:40:58.873Z,99537.28
2023-04-21T05:41:33.630Z,99535.13
2023-04-21T05:42:06.841Z,99537.53
2023-04-21T05:42:39.072Z,99535.38
2023-04-21T05:43:13.894Z,99543.16
2023-04-21T05:43:47.719Z,99548.53
2023-04-21T05:44:22.499Z,99535.63
2023-04-21T05:44:55.399Z,99532.69
2023-04-21T05:45:30.260Z,99535.88
2023-04-21T05:46:03.138Z,99534.81
2023-04-21T05:46:35.610Z,99533.19
2023-04-21T05:47:10.779Z,99531.56
2023-04-21T05:47:43.327Z,99534.25
2023-04-21T05:48:15.579Z,99526.97
2023-04-21T05:48:50.422Z,99538.81
2023-04-21T05:49:22.672Z,99531.03
2023-04-21T05:49:54.885Z,99526.16
2023-04-21T05:50:34.182Z,99535.84
2023-04-21T05:51:10.637Z,99530.47
2023-04-21T05:51:45.450Z,99525.09
2023-04-21T05:52:17.943Z,99525.88
2023-04-21T05:52:50.212Z,99530.72
2023-04-21T05:53:25.410Z,99527.75
2023-04-21T05:53:57.591Z,99526.13
2023-04-21T05:54:29.878Z,99522.38
2023-04-21T05:55:08.017Z,99522.88
2023-04-21T05:55:40.176Z,99522.06
2023-04-21T05:56:15.504Z,99524.50
2023-04-21T05:56:48.466Z,99515.63
2023-04-21T05:57:20.822Z,99522.88
2023-04-21T05:57:55.714Z,99521.78
2023-04-21T05:58:27.875Z,99525.00
2023-04-21T05:59:00.091Z,99520.97
2023-04-21T05:59:34.951Z,99518.00
2023-04-21T06:00:09.173Z,99519.59
2023-04-21T06:00:43.960Z,99524.44
2023-04-21T06:01:16.240Z,99522.25
2023-04-21T06:01:48.497Z,99512.03
2023-04-21T06:02:23.431Z,99521.72
2023-04-21T06:02:56.134Z,99520.09
2023-04-21T06:03:28.470Z,99518.97
2023-04-21T06:04:03.460Z,99519.50
2023-04-21T06:04:36.405Z,99520.31
2023-04-21T06:05:08.928Z,99521.63
2023-04-21T06:05:44.190Z,99516.25
2023-04-21T06:06:16.599Z,99521.09
2023-04-21T06:06:48.842Z,99521.88
2023-04-21T06:07:23.588Z,99516.22
2023-04-21T06:07:55.803Z,99517.56
2023-04-21T06:08:28.071Z,99520.28
2023-04-21T06:09:03.079Z,99524.28
2023-04-21T06:09:35.659Z,99525.88
2023-04-21T06:10:11.838Z,99512.13
2023-04-21T06:10:46.597Z,99521.56
2023-04-21T06:11:18.815Z,99517.25
2023-04-21T06:11:51.082Z,99521.28
2023-04-21T06:12:25.930Z,99526.38
2023-04-21T06:12:58.124Z,99527.19
2023-04-21T06:13:30.395Z,99509.94
2023-04-21T06:14:05.224Z,99522.34
2023-04-21T06:14:37.437Z,99515.06
2023-04-21T06:15:10.627Z,99526.34
2023-04-21T06:15:45.490Z,99513.69
2023-04-21T06:16:17.747Z,99516.09
2023-04-21T06:16:52.576Z,99520.38
2023-04-21T06:17:24.812Z,99518.50
2023-04-21T06:17:57.124Z,99519.31
2023-04-21T06:18:32.664Z,99518.22
2023-04-21T06:19:04.903Z,99516.63
2023-04-21T06:19:38.566Z,99519.31
2023-04-21T06:20:14.655Z,99523.88
2023-04-21T06:20:51.089Z,99516.66
2023-04-21T06:21:23.324Z,99518.25
2023-04-21T06:21:59.667Z,99531.16
2023-04-21T06:22:33.212Z,99524.19
2023-04-21T06:23:05.535Z,99523.06
2023-04-21T06:23:41.030Z,99516.91
2023-04-21T06:24:13.218Z,99519.88
2023-04-21T06:24:45.516Z,99518.00
2023-04-21T06:25:23.278Z,99522.56
2023-04-21T06:26:01.911Z,99525.53
2023-04-21T06:26:36.688Z,99524.72
2023-04-21T06:27:12.370Z,99527.41
2023-04-21T06:27:45.817Z,99524.72
2023-04-21T06:28:20.927Z,99523.13
2023-04-21T06:28:53.111Z,99524.72
2023-04-21T06:29:25.457Z,99520.16
2023-04-21T06:30:00.207Z,99523.13
2023-04-21T06:30:32.376Z,99527.16
2023-04-21T06:31:09.980Z,99534.97
2023-04-21T06:31:42.305Z,99519.88
2023-04-21T06:32:14.489Z,99519.88
2023-04-21T06:32:49.288Z,99532.78
2023-04-21T06:33:21.534Z,99527.38
2023-04-21T06:33:53.800Z,99525.22
2023-04-21T06:34:28.839Z,99523.34
2023-04-21T06:35:01.012Z,99522.53
2023-04-21T06:35:35.935Z,99528.72
2023-04-21T06:36:08.858Z,99531.44
2023-04-21T06:36:41.146Z,99532.19
2023-04-21T06:37:15.977Z,99528.72